sensor_id;sensor_type;location;lat;lon;timestamp;temperature;humidity
5631;DHT22;2837;50.990;7.124;2023-02-24T06:02:43;7.80;99.90
5631;DHT22;2837;50.990;7.124;2023-02-24T06:05:18;7.90;99.90
5631;DHT22;2837;50.990;7.124;2023-02-24T06:07:55;7.80;99.90
5631;DHT22;2837;50.990;7.124;2023-02-24T06:10:29;7.80;99.90
5631;DHT22;2837;50.990;7.124;2023-02-24T06:12:56;7.80;99.90
5631;DHT22;2837;50.990;7.124;2023-02-24T06:15:21;7.70;99.90
5631;DHT22;2837;50.990;7.124;2023-02-24T06:17:47;7.80;99.90
5631;DHT22;2837;50.990;7.124;2023-02-24T06:20:13;7.80;99.90
5631;DHT22;2837;50.990;7.124;2023-02-24T06:22:40;7.80;99.90
5631;DHT22;2837;50.990;7.124;2023-02-24T06:25:07;7.90;99.90
5631;DHT22;2837;50.990;7.124;2023-02-24T06:27:33;7.90;99.90
5631;DHT22;2837;50.990;7.124;2023-02-24T06:30:01;7.90;99.90
5631;DHT22;2837;50.990;7.124;2023-02-24T06:32:28;7.90;99.90
5631;DHT22;2837;50.990;7.124;2023-02-24T06:34:54;7.90;99.90
5631;DHT22;2837;50.990;7.124;2023-02-24T06:37:19;7.90;99.90
5631;DHT22;2837;50.990;7.124;2023-02-24T06:39:47;7.90;99.90
5631;DHT22;2837;50.990;7.124;2023-02-24T06:42:12;7.90;99.90
5631;DHT22;2837;50.990;7.124;2023-02-24T06:44:39;7.90;99.90
5631;DHT22;2837;50.990;7.124;2023-02-24T06:47:07;8.00;99.90
5631;DHT22;2837;50.990;7.124;2023-02-24T06:49:34;7.90;99.90
5631;DHT22;2837;50.990;7.124;2023-02-24T06:52:01;7.90;99.90
5631;DHT22;2837;50.990;7.124;2023-02-24T06:54:27;8.00;99.90
5631;DHT22;2837;50.990;7.124;2023-02-24T06:56:55;7.90;99.90
5631;DHT22;2837;50.990;7.124;2023-02-24T06:59:22;7.80;99.90
5631;DHT22;2837;50.990;7.124;2023-02-24T07:01:53;7.80;99.90
5631;DHT22;2837;50.990;7.124;2023-02-24T07:04:19;7.50;99.90
5631;DHT22;2837;50.990;7.124;2023-02-24T07:06:51;7.80;99.90
5631;DHT22;2837;50.990;7.124;2023-02-24T07:09:21;7.80;99.90
5631;DHT22;2837;50.990;7.124;2023-02-24T07:11:49;7.80;99.90
5631;DHT22;2837;50.990;7.124;2023-02-24T07:14:23;7.90;99.90
5631;DHT22;2837;50.990;7.124;2023-02-24T07:16:49;7.90;99.90
5631;DHT22;2837;50.990;7.124;2023-02-24T07:19:27;8.00;99.90
5631;DHT22;2837;50.990;7.124;2023-02-24T07:22:01;8.00;99.90
5631;DHT22;2837;50.990;7.124;2023-02-24T07:24:33;8.00;99.90
5631;DHT22;2837;50.990;7.124;2023-02-24T07:27:11;8.00;99.90
5631;DHT22;2837;50.990;7.124;2023-02-24T07:29:37;8.10;99.90
5631;DHT22;2837;50.990;7.124;2023-02-24T07:32:04;8.00;99.90
5631;DHT22;2837;50.990;7.124;2023-02-24T07:34:30;8.10;99.90
5631;DHT22;2837;50.990;7.124;2023-02-24T07:36:58;8.10;99.90
5631;DHT22;2837;50.990;7.124;2023-02-24T07:39:27;8.10;99.90
5631;DHT22;2837;50.990;7.124;2023-02-24T07:41:53;8.10;99.90
5631;DHT22;2837;50.990;7.124;2023-02-24T07:44:20;8.10;99.90
5631;DHT22;2837;50.990;7.124;2023-02-24T07:46:47;8.10;99.90
5631;DHT22;2837;50.990;7.124;2023-02-24T07:49:16;8.10;99.90
5631;DHT22;2837;50.990;7.124;2023-02-24T07:51:44;8.10;99.90
5631;DHT22;2837;50.990;7.124;2023-02-24T07:54:11;8.20;99.90
5631;DHT22;2837;50.990;7.124;2023-02-24T07:56:39;8.20;99.90
5631;DHT22;2837;50.990;7.124;2023-02-24T07:59:11;8.20;99.90
5631;DHT22;2837;50.990;7.124;2023-02-24T08:01:40;8.20;99.90
5631;DHT22;2837;50.990;7.124;2023-02-24T08:04:15;8.20;99.90
5631;DHT22;2837;50.990;7.124;2023-02-24T08:06:42;8.30;99.90
5631;DHT22;2837;50.990;7.124;2023-02-24T08:09:16;8.20;99.90
5631;DHT22;2837;50.990;7.124;2023-02-24T08:11:55;8.30;99.90
5631;DHT22;2837;50.990;7.124;2023-02-24T08:14:26;8.30;99.90
5631;DHT22;2837;50.990;7.124;2023-02-24T08:16:59;8.30;99.90
5631;DHT22;2837;50.990;7.124;2023-02-24T08:19:29;8.30;99.90
5631;DHT22;2837;50.990;7.124;2023-02-24T08:22:09;8.30;99.90
5631;DHT22;2837;50.990;7.124;2023-02-24T08:24:51;8.40;99.90
5631;DHT22;2837;50.990;7.124;2023-02-24T08:27:19;8.30;99.90
5631;DHT22;2837;50.990;7.124;2023-02-24T08:29:48;8.30;99.90
5631;DHT22;2837;50.990;7.124;2023-02-24T08:32:38;8.30;99.90
5631;DHT22;2837;50.990;7.124;2023-02-24T08:35:10;8.40;99.90
5631;DHT22;2837;50.990;7.124;2023-02-24T08:37:44;8.40;99.90
5631;DHT22;2837;50.990;7.124;2023-02-24T08:40:20;8.40;99.90
5631;DHT22;2837;50.990;7.124;2023-02-24T08:45:32;8.40;99.90
5631;DHT22;2837;50.990;7.124;2023-02-24T08:47:58;8.40;99.90
5631;DHT22;2837;50.990;7.124;2023-02-24T08:50:27;8.50;99.90
5631;DHT22;2837;50.990;7.124;2023-02-24T08:52:58;8.50;99.90
5631;DHT22;2837;50.990;7.124;2023-02-24T08:55:25;8.50;99.90
5631;DHT22;2837;50.990;7.124;2023-02-24T08:57:57;8.50;99.90
5631;DHT22;2837;50.990;7.124;2023-02-24T09:00:27;8.50;99.90
5631;DHT22;2837;50.990;7.124;2023-02-24T09:03:16;8.50;99.90
5631;DHT22;2837;50.990;7.124;2023-02-24T09:06:11;8.50;99.90
5631;DHT22;2837;50.990;7.124;2023-02-24T09:08:41;8.50;99.90
5631;DHT22;2837;50.990;7.124;2023-02-24T09:11:13;8.50;99.90
5631;DHT22;2837;50.990;7.124;2023-02-24T09:13:42;8.50;99.90
5631;DHT22;2837;50.990;7.124;2023-02-24T09:16:17;8.50;99.90
5631;DHT22;2837;50.990;7.124;2023-02-24T09:18:43;8.50;99.90
5631;DHT22;2837;50.990;7.124;2023-02-24T09:21:11;8.60;99.90
5631;DHT22;2837;50.990;7.124;2023-02-24T09:23:55;8.50;99.90
5631;DHT22;2837;50.990;7.124;2023-02-24T09:26:21;8.50;99.90
5631;DHT22;2837;50.990;7.124;2023-02-24T09:28:46;8.60;99.90
5631;DHT22;2837;50.990;7.124;2023-02-24T09:31:20;8.60;99.90
5631;DHT22;2837;50.990;7.124;2023-02-24T09:33:48;8.60;99.90
5631;DHT22;2837;50.990;7.124;2023-02-24T09:36:19;8.60;99.90
5631;DHT22;2837;50.990;7.124;2023-02-24T09:38:53;8.60;99.90
5631;DHT22;2837;50.990;7.124;2023-02-24T09:41:44;8.60;99.90
5631;DHT22;2837;50.990;7.124;2023-02-24T09:44:48;8.60;99.90
5631;DHT22;2837;50.990;7.124;2023-02-24T09:52:46;8.60;99.90
5631;DHT22;2837;50.990;7.124;2023-02-24T09:55:23;8.70;99.90
5631;DHT22;2837;50.990;7.124;2023-02-24T10:01:16;8.60;99.90
5631;DHT22;2837;50.990;7.124;2023-02-24T10:06:30;8.70;99.90
5631;DHT22;2837;50.990;7.124;2023-02-24T10:14:35;8.60;99.90
5631;DHT22;2837;50.990;7.124;2023-02-24T10:20:16;8.60;99.90
5631;DHT22;2837;50.990;7.124;2023-02-24T10:25:37;8.60;99.90
5631;DHT22;2837;50.990;7.124;2023-02-24T10:31:19;8.60;99.90
5631;DHT22;2837;50.990;7.124;2023-02-24T10:34:03;8.60;99.90
5631;DHT22;2837;50.990;7.124;2023-02-24T10:36:32;8.60;99.90
5631;DHT22;2837;50.990;7.124;2023-02-24T10:39:20;8.60;99.90
5631;DHT22;2837;50.990;7.124;2023-02-24T10:41:57;8.60;99.90
5631;DHT22;2837;50.990;7.124;2023-02-24T10:44:25;8.70;99.90
5631;DHT22;2837;50.990;7.124;2023-02-24T10:47:09;8.60;99.90
5631;DHT22;2837;50.990;7.124;2023-02-24T10:49:41;8.70;99.90
5631;DHT22;2837;50.990;7.124;2023-02-24T10:52:12;8.70;99.90
5631;DHT22;2837;50.990;7.124;2023-02-24T10:54:58;8.70;99.90
5631;DHT22;2837;50.990;7.124;2023-02-24T10:57:40;8.70;99.90
5631;DHT22;2837;50.990;7.124;2023-02-24T11:00:19;8.70;99.90
5631;DHT22;2837;50.990;7.124;2023-02-24T11:02:55;8.70;99.90
5631;DHT22;2837;50.990;7.124;2023-02-24T11:05:41;8.70;99.90
5631;DHT22;2837;50.990;7.124;2023-02-24T11:08:26;8.60;99.90
5631;DHT22;2837;50.990;7.124;2023-02-24T11:11:22;8.60;99.90
5631;DHT22;2837;50.990;7.124;2023-02-24T11:13:56;8.60;99.90
5631;DHT22;2837;50.990;7.124;2023-02-24T11:16:48;8.60;99.90
5631;DHT22;2837;50.990;7.124;2023-02-24T11:19:49;8.60;99.90
5631;DHT22;2837;50.990;7.124;2023-02-24T11:22:27;8.60;99.90
5631;DHT22;2837;50.990;7.124;2023-02-24T11:24:55;8.60;99.90
5631;DHT22;2837;50.990;7.124;2023-02-24T11:27:22;8.60;99.90
5631;DHT22;2837;50.990;7.124;2023-02-24T11:30:11;8.70;99.90
5631;DHT22;2837;50.990;7.124;2023-02-24T11:35:53;8.60;99.90
5631;DHT22;2837;50.990;7.124;2023-02-24T11:41:24;8.60;99.90
5631;DHT22;2837;50.990;7.124;2023-02-24T11:44:30;8.50;99.90
5631;DHT22;2837;50.990;7.124;2023-02-24T11:47:03;8.50;99.90
5631;DHT22;2837;50.990;7.124;2023-02-24T11:52:09;8.40;99.90
5631;DHT22;2837;50.990;7.124;2023-02-24T11:54:41;8.40;99.90
5631;DHT22;2837;50.990;7.124;2023-02-24T11:57:22;8.40;99.90
5631;DHT22;2837;50.990;7.124;2023-02-24T12:00:16;8.40;99.90
5631;DHT22;2837;50.990;7.124;2023-02-24T12:03:05;8.40;99.90
5631;DHT22;2837;50.990;7.124;2023-02-24T12:05:37;8.30;99.90
5631;DHT22;2837;50.990;7.124;2023-02-24T12:08:33;8.30;99.90
5631;DHT22;2837;50.990;7.124;2023-02-24T12:13:47;8.20;99.90
5631;DHT22;2837;50.990;7.124;2023-02-24T12:16:23;8.20;99.90
5631;DHT22;2837;50.990;7.124;2023-02-24T12:18:57;8.90;99.90
5631;DHT22;2837;50.990;7.124;2023-02-24T12:21:28;8.30;99.90
5631;DHT22;2837;50.990;7.124;2023-02-24T12:23:56;8.30;99.90
5631;DHT22;2837;50.990;7.124;2023-02-24T12:26:33;8.30;99.90
5631;DHT22;2837;50.990;7.124;2023-02-24T12:32:47;8.30;99.90
5631;DHT22;2837;50.990;7.124;2023-02-24T12:35:23;8.30;99.90
5631;DHT22;2837;50.990;7.124;2023-02-24T12:40:33;8.30;99.90
5631;DHT22;2837;50.990;7.124;2023-02-24T12:51:41;8.20;99.90
5631;DHT22;2837;50.990;7.124;2023-02-24T12:54:28;8.30;99.90
5631;DHT22;2837;50.990;7.124;2023-02-24T12:59:40;8.30;99.90
5631;DHT22;2837;50.990;7.124;2023-02-24T13:05:18;8.20;99.90
5631;DHT22;2837;50.990;7.124;2023-02-24T13:10:46;8.20;99.90
5631;DHT22;2837;50.990;7.124;2023-02-24T13:16:01;8.20;99.90
5631;DHT22;2837;50.990;7.124;2023-02-24T13:18:32;8.10;99.90
5631;DHT22;2837;50.990;7.124;2023-02-24T13:23:28;8.10;99.90
5631;DHT22;2837;50.990;7.124;2023-02-24T13:25:56;8.10;99.90
5631;DHT22;2837;50.990;7.124;2023-02-24T13:28:33;8.00;99.90
5631;DHT22;2837;50.990;7.124;2023-02-24T13:31:04;8.00;99.90
5631;DHT22;2837;50.990;7.124;2023-02-24T13:33:33;8.00;99.90
5631;DHT22;2837;50.990;7.124;2023-02-24T13:38:40;7.90;99.90
5631;DHT22;2837;50.990;7.124;2023-02-24T13:44:00;8.00;99.90
5631;DHT22;2837;50.990;7.124;2023-02-24T13:46:49;8.00;99.90
5631;DHT22;2837;50.990;7.124;2023-02-24T13:49:42;8.10;99.90
5631;DHT22;2837;50.990;7.124;2023-02-24T13:52:35;8.00;99.90
5631;DHT22;2837;50.990;7.124;2023-02-24T14:00:25;8.00;99.90
5631;DHT22;2837;50.990;7.124;2023-02-24T14:02:52;8.00;99.90
5631;DHT22;2837;50.990;7.124;2023-02-24T14:05:27;8.10;99.90
5631;DHT22;2837;50.990;7.124;2023-02-24T14:07:54;8.00;99.90
5631;DHT22;2837;50.990;7.124;2023-02-24T14:10:23;8.10;99.90
5631;DHT22;2837;50.990;7.124;2023-02-24T14:13:05;8.00;99.90
5631;DHT22;2837;50.990;7.124;2023-02-24T14:15:32;8.10;99.90
5631;DHT22;2837;50.990;7.124;2023-02-24T14:18:01;8.10;99.90
5631;DHT22;2837;50.990;7.124;2023-02-24T14:20:33;8.10;99.90
5631;DHT22;2837;50.990;7.124;2023-02-24T14:23:00;8.10;99.90
5631;DHT22;2837;50.990;7.124;2023-02-24T14:25:28;8.00;99.90
5631;DHT22;2837;50.990;7.124;2023-02-24T14:27:55;8.00;99.90
5631;DHT22;2837;50.990;7.124;2023-02-24T14:30:24;8.00;99.90
5631;DHT22;2837;50.990;7.124;2023-02-24T14:32:50;8.00;99.90
5631;DHT22;2837;50.990;7.124;2023-02-24T14:37:59;7.90;99.90
5631;DHT22;2837;50.990;7.124;2023-02-24T14:40:25;7.90;99.90
5631;DHT22;2837;50.990;7.124;2023-02-24T14:42:52;7.90;99.90
5631;DHT22;2837;50.990;7.124;2023-02-24T14:45:21;7.90;99.90
5631;DHT22;2837;50.990;7.124;2023-02-24T14:47:50;7.90;99.90
5631;DHT22;2837;50.990;7.124;2023-02-24T14:50:23;7.90;99.90
5631;DHT22;2837;50.990;7.124;2023-02-24T14:53:00;7.90;99.90
5631;DHT22;2837;50.990;7.124;2023-02-24T14:55:34;7.90;99.90
5631;DHT22;2837;50.990;7.124;2023-02-24T14:58:17;7.90;99.90
5631;DHT22;2837;50.990;7.124;2023-02-24T15:00:57;7.90;99.90
5631;DHT22;2837;50.990;7.124;2023-02-24T15:03:32;7.90;99.90
5631;DHT22;2837;50.990;7.124;2023-02-24T15:06:07;7.90;99.90
5631;DHT22;2837;50.990;7.124;2023-02-24T15:08:45;7.90;99.90
5631;DHT22;2837;50.990;7.124;2023-02-24T15:13:52;7.90;99.90
5631;DHT22;2837;50.990;7.124;2023-02-24T15:16:20;7.90;99.90
5631;DHT22;2837;50.990;7.124;2023-02-24T15:18:52;7.90;99.90
5631;DHT22;2837;50.990;7.124;2023-02-24T15:21:27;7.90;99.90
5631;DHT22;2837;50.990;7.124;2023-02-24T15:24:16;7.90;99.90
5631;DHT22;2837;50.990;7.124;2023-02-24T15:26:41;7.90;99.90
5631;DHT22;2837;50.990;7.124;2023-02-24T15:29:20;7.90;99.90
5631;DHT22;2837;50.990;7.124;2023-02-24T15:31:48;7.90;99.90
5631;DHT22;2837;50.990;7.124;2023-02-24T15:34:23;8.00;99.90
5631;DHT22;2837;50.990;7.124;2023-02-24T15:36:53;7.90;99.90
5631;DHT22;2837;50.990;7.124;2023-02-24T15:39:22;7.90;99.90
5631;DHT22;2837;50.990;7.124;2023-02-24T15:41:50;8.00;99.90
5631;DHT22;2837;50.990;7.124;2023-02-24T15:44:27;8.00;99.90
5631;DHT22;2837;50.990;7.124;2023-02-24T15:46:55;8.00;99.90
5631;DHT22;2837;50.990;7.124;2023-02-24T15:49:21;8.00;99.90
5631;DHT22;2837;50.990;7.124;2023-02-24T15:51:49;8.00;99.90
5631;DHT22;2837;50.990;7.124;2023-02-24T15:54:33;7.90;99.90
5631;DHT22;2837;50.990;7.124;2023-02-24T15:57:01;8.00;99.90
5631;DHT22;2837;50.990;7.124;2023-02-24T15:59:27;8.00;99.90
5631;DHT22;2837;50.990;7.124;2023-02-24T16:01:53;7.90;99.90
5631;DHT22;2837;50.990;7.124;2023-02-24T16:04:20;7.90;99.90
5631;DHT22;2837;50.990;7.124;2023-02-24T16:06:48;7.90;99.90
5631;DHT22;2837;50.990;7.124;2023-02-24T16:09:29;7.90;99.90
5631;DHT22;2837;50.990;7.124;2023-02-24T16:11:57;7.90;99.90
5631;DHT22;2837;50.990;7.124;2023-02-24T16:14:23;7.90;99.90
5631;DHT22;2837;50.990;7.124;2023-02-24T16:16:49;8.00;99.90
5631;DHT22;2837;50.990;7.124;2023-02-24T16:19:15;8.00;99.90
5631;DHT22;2837;50.990;7.124;2023-02-24T16:21:41;8.00;99.90
5631;DHT22;2837;50.990;7.124;2023-02-24T16:24:07;8.00;99.90
5631;DHT22;2837;50.990;7.124;2023-02-24T16:26:35;7.90;99.90
5631;DHT22;2837;50.990;7.124;2023-02-24T16:29:02;8.00;99.90
5631;DHT22;2837;50.990;7.124;2023-02-24T16:31:28;8.00;99.90
5631;DHT22;2837;50.990;7.124;2023-02-24T16:33:54;8.00;99.90
5631;DHT22;2837;50.990;7.124;2023-02-24T16:36:22;8.00;99.90
5631;DHT22;2837;50.990;7.124;2023-02-24T16:38:48;8.00;99.90
5631;DHT22;2837;50.990;7.124;2023-02-24T16:41:16;8.00;99.90
5631;DHT22;2837;50.990;7.124;2023-02-24T16:43:42;8.10;99.90
5631;DHT22;2837;50.990;7.124;2023-02-24T16:46:13;8.00;99.90
5631;DHT22;2837;50.990;7.124;2023-02-24T16:48:40;8.10;99.90
5631;DHT22;2837;50.990;7.124;2023-02-24T16:51:07;8.00;99.90
5631;DHT22;2837;50.990;7.124;2023-02-24T16:53:33;8.60;99.90
5631;DHT22;2837;50.990;7.124;2023-02-24T16:55:59;8.10;99.90
5631;DHT22;2837;50.990;7.124;2023-02-24T16:58:25;8.10;99.90
5631;DHT22;2837;50.990;7.124;2023-02-24T17:00:53;8.10;99.90
5631;DHT22;2837;50.990;7.124;2023-02-24T17:03:44;8.10;99.90
5631;DHT22;2837;50.990;7.124;2023-02-24T17:06:10;8.10;99.90
5631;DHT22;2837;50.990;7.124;2023-02-24T17:08:35;8.10;99.90
5631;DHT22;2837;50.990;7.124;2023-02-24T17:11:02;8.10;99.90
5631;DHT22;2837;50.990;7.124;2023-02-24T17:13:28;8.10;99.90
5631;DHT22;2837;50.990;7.124;2023-02-24T17:15:54;8.00;99.90
5631;DHT22;2837;50.990;7.124;2023-02-24T17:18:22;8.10;99.90
5631;DHT22;2837;50.990;7.124;2023-02-24T17:20:48;8.10;99.90
5631;DHT22;2837;50.990;7.124;2023-02-24T17:23:13;8.10;99.90
5631;DHT22;2837;50.990;7.124;2023-02-24T17:25:39;8.10;99.90
5631;DHT22;2837;50.990;7.124;2023-02-24T17:28:05;8.10;99.90
5631;DHT22;2837;50.990;7.124;2023-02-24T17:30:33;8.10;99.90
5631;DHT22;2837;50.990;7.124;2023-02-24T17:32:59;8.10;99.90
5631;DHT22;2837;50.990;7.124;2023-02-24T17:35:25;8.10;99.90
5631;DHT22;2837;50.990;7.124;2023-02-24T17:37:51;8.10;99.90
5631;DHT22;2837;50.990;7.124;2023-02-24T17:40:17;8.10;99.90
5631;DHT22;2837;50.990;7.124;2023-02-24T17:42:43;8.10;99.90
5631;DHT22;2837;50.990;7.124;2023-02-24T17:45:10;8.10;99.90
5631;DHT22;2837;50.990;7.124;2023-02-24T17:47:36;8.10;99.90
5631;DHT22;2837;50.990;7.124;2023-02-24T17:50:02;8.10;99.90
5631;DHT22;2837;50.990;7.124;2023-02-24T17:52:29;8.10;99.90
5631;DHT22;2837;50.990;7.124;2023-02-24T17:54:55;8.10;99.90
5631;DHT22;2837;50.990;7.124;2023-02-24T17:57:21;8.10;99.90
5631;DHT22;2837;50.990;7.124;2023-02-24T17:59:46;8.10;99.90
5631;DHT22;2837;50.990;7.124;2023-02-24T18:02:14;8.10;99.90
5631;DHT22;2837;50.990;7.124;2023-02-24T18:04:39;8.10;99.90
5631;DHT22;2837;50.990;7.124;2023-02-24T18:07:06;8.10;99.90
5631;DHT22;2837;50.990;7.124;2023-02-24T18:09:32;8.10;99.90
5631;DHT22;2837;50.990;7.124;2023-02-24T18:11:57;8.10;99.90
5631;DHT22;2837;50.990;7.124;2023-02-24T18:14:23;8.10;99.90
5631;DHT22;2837;50.990;7.124;2023-02-24T18:16:48;8.10;99.90
5631;DHT22;2837;50.990;7.124;2023-02-24T18:19:14;8.10;99.90
5631;DHT22;2837;50.990;7.124;2023-02-24T18:21:40;8.10;99.90
5631;DHT22;2837;50.990;7.124;2023-02-24T18:24:05;8.10;99.90
5631;DHT22;2837;50.990;7.124;2023-02-24T18:26:31;8.20;99.90
5631;DHT22;2837;50.990;7.124;2023-02-24T18:28:57;8.20;99.90
5631;DHT22;2837;50.990;7.124;2023-02-24T18:31:25;8.20;99.90
5631;DHT22;2837;50.990;7.124;2023-02-24T18:33:51;8.10;99.90
5631;DHT22;2837;50.990;7.124;2023-02-24T18:36:17;8.20;99.90
5631;DHT22;2837;50.990;7.124;2023-02-24T18:38:43;8.20;99.90
5631;DHT22;2837;50.990;7.124;2023-02-24T18:41:13;8.30;99.90
5631;DHT22;2837;50.990;7.124;2023-02-24T18:43:40;8.30;99.90
5631;DHT22;2837;50.990;7.124;2023-02-24T18:46:10;8.30;99.90
5631;DHT22;2837;50.990;7.124;2023-02-24T18:48:36;8.30;99.90
5631;DHT22;2837;50.990;7.124;2023-02-24T18:51:02;8.30;99.90
5631;DHT22;2837;50.990;7.124;2023-02-24T18:53:30;8.30;99.90
5631;DHT22;2837;50.990;7.124;2023-02-24T18:56:16;8.20;99.90
5631;DHT22;2837;50.990;7.124;2023-02-24T18:58:43;8.30;99.90
5631;DHT22;2837;50.990;7.124;2023-02-24T19:01:18;8.20;99.90
5631;DHT22;2837;50.990;7.124;2023-02-24T19:03:48;8.20;99.90
5631;DHT22;2837;50.990;7.124;2023-02-24T19:06:15;8.30;99.90
5631;DHT22;2837;50.990;7.124;2023-02-24T19:08:44;8.30;99.90
5631;DHT22;2837;50.990;7.124;2023-02-24T19:11:15;8.20;99.90
5631;DHT22;2837;50.990;7.124;2023-02-24T19:13:42;8.20;99.90
5631;DHT22;2837;50.990;7.124;2023-02-24T19:16:08;8.20;99.90
5631;DHT22;2837;50.990;7.124;2023-02-24T19:18:34;8.30;99.90
5631;DHT22;2837;50.990;7.124;2023-02-24T19:21:00;8.30;99.90
5631;DHT22;2837;50.990;7.124;2023-02-24T19:23:26;8.20;99.90
5631;DHT22;2837;50.990;7.124;2023-02-24T19:25:52;9.20;99.90
5631;DHT22;2837;50.990;7.124;2023-02-24T19:28:17;8.20;99.90
5631;DHT22;2837;50.990;7.124;2023-02-24T19:30:43;8.10;99.90
5631;DHT22;2837;50.990;7.124;2023-02-24T19:33:09;8.10;99.90
5631;DHT22;2837;50.990;7.124;2023-02-24T19:35:38;8.10;99.90
5631;DHT22;2837;50.990;7.124;2023-02-24T19:38:04;8.10;99.90
5631;DHT22;2837;50.990;7.124;2023-02-24T19:40:29;8.10;99.90
5631;DHT22;2837;50.990;7.124;2023-02-24T19:42:55;8.00;99.90
5631;DHT22;2837;50.990;7.124;2023-02-24T19:45:20;8.10;99.90
5631;DHT22;2837;50.990;7.124;2023-02-24T19:47:46;8.00;99.90
5631;DHT22;2837;50.990;7.124;2023-02-24T19:50:13;8.00;99.90
5631;DHT22;2837;50.990;7.124;2023-02-24T19:52:39;8.00;99.90
5631;DHT22;2837;50.990;7.124;2023-02-24T19:55:07;7.90;99.90
5631;DHT22;2837;50.990;7.124;2023-02-24T19:57:33;7.90;99.90
5631;DHT22;2837;50.990;7.124;2023-02-24T19:59:59;7.90;99.90
5631;DHT22;2837;50.990;7.124;2023-02-24T20:02:24;7.90;99.90
5631;DHT22;2837;50.990;7.124;2023-02-24T20:04:50;7.90;99.90
5631;DHT22;2837;50.990;7.124;2023-02-24T20:07:16;7.90;99.90
5631;DHT22;2837;50.990;7.124;2023-02-24T20:09:41;7.80;99.90
5631;DHT22;2837;50.990;7.124;2023-02-24T20:12:08;7.90;99.90
5631;DHT22;2837;50.990;7.124;2023-02-24T20:14:33;7.70;99.90
5631;DHT22;2837;50.990;7.124;2023-02-24T20:16:59;7.70;99.90
5631;DHT22;2837;50.990;7.124;2023-02-24T20:19:25;7.80;99.90
5631;DHT22;2837;50.990;7.124;2023-02-24T20:21:50;7.80;99.90
5631;DHT22;2837;50.990;7.124;2023-02-24T20:24:17;7.80;99.90
5631;DHT22;2837;50.990;7.124;2023-02-24T20:26:44;7.80;99.90
5631;DHT22;2837;50.990;7.124;2023-02-24T20:29:12;7.80;99.90
5631;DHT22;2837;50.990;7.124;2023-02-24T20:31:38;7.80;99.90
5631;DHT22;2837;50.990;7.124;2023-02-24T20:34:04;7.90;99.90
5631;DHT22;2837;50.990;7.124;2023-02-24T20:36:30;7.80;99.90
5631;DHT22;2837;50.990;7.124;2023-02-24T20:38:58;7.90;99.90
5631;DHT22;2837;50.990;7.124;2023-02-24T20:41:24;7.90;99.90
5631;DHT22;2837;50.990;7.124;2023-02-24T20:43:51;7.90;99.90
5631;DHT22;2837;50.990;7.124;2023-02-24T20:46:22;8.00;99.90
5631;DHT22;2837;50.990;7.124;2023-02-24T20:48:49;8.00;99.90
5631;DHT22;2837;50.990;7.124;2023-02-24T20:51:14;8.00;99.90
5631;DHT22;2837;50.990;7.124;2023-02-24T20:53:40;7.90;99.90
5631;DHT22;2837;50.990;7.124;2023-02-24T20:56:09;8.60;99.90
5631;DHT22;2837;50.990;7.124;2023-02-24T20:58:48;7.90;99.90
5631;DHT22;2837;50.990;7.124;2023-02-24T21:01:14;7.90;99.90
5631;DHT22;2837;50.990;7.124;2023-02-24T21:03:40;7.80;99.90
5631;DHT22;2837;50.990;7.124;2023-02-24T21:06:09;7.70;99.90
5631;DHT22;2837;50.990;7.124;2023-02-24T21:08:35;7.70;99.90
5631;DHT22;2837;50.990;7.124;2023-02-24T21:11:01;7.70;99.90
5631;DHT22;2837;50.990;7.124;2023-02-24T21:13:26;7.60;99.90
5631;DHT22;2837;50.990;7.124;2023-02-24T21:15:53;7.60;99.90
5631;DHT22;2837;50.990;7.124;2023-02-24T21:18:19;7.60;99.90
5631;DHT22;2837;50.990;7.124;2023-02-24T21:20:46;7.60;99.90
5631;DHT22;2837;50.990;7.124;2023-02-24T21:23:12;7.50;99.90
5631;DHT22;2837;50.990;7.124;2023-02-24T21:25:38;7.50;99.90
5631;DHT22;2837;50.990;7.124;2023-02-24T21:28:03;7.50;99.90
5631;DHT22;2837;50.990;7.124;2023-02-24T21:30:29;7.60;99.90
5631;DHT22;2837;50.990;7.124;2023-02-24T21:32:55;7.50;99.90
5631;DHT22;2837;50.990;7.124;2023-02-24T21:35:20;7.50;99.90
5631;DHT22;2837;50.990;7.124;2023-02-24T21:37:46;7.50;99.90
5631;DHT22;2837;50.990;7.124;2023-02-24T21:40:12;7.50;99.90
5631;DHT22;2837;50.990;7.124;2023-02-24T21:42:40;7.40;99.90
5631;DHT22;2837;50.990;7.124;2023-02-24T21:45:08;7.40;99.90
5631;DHT22;2837;50.990;7.124;2023-02-24T21:47:39;7.40;99.90
5631;DHT22;2837;50.990;7.124;2023-02-24T21:50:06;7.40;99.90
5631;DHT22;2837;50.990;7.124;2023-02-24T21:52:33;7.50;99.90
5631;DHT22;2837;50.990;7.124;2023-02-24T21:54:58;7.50;99.90
5631;DHT22;2837;50.990;7.124;2023-02-24T21:57:24;7.50;99.90
5631;DHT22;2837;50.990;7.124;2023-02-24T21:59:49;7.50;99.90
